Time;durP1;ratioP1;P1;durP2;ratioP2;P2;SDS_P1;SDS_P2;PMS_P1;PMS_P2;Temp;Humidity;BMP_temperature;BMP_pressure;BME280_temperature;BME280_humidity;BME280_pressure;Samples;Min_cycle;Max_cycle;Signal;HPM_P1;HPM_P2
2021/01/02 05:19:12;;;;;;;3.17;2.20;;;-4.10;93.60;;;;;;5521084;23;20050;-75
2021/01/02 05:21:43;;;;;;;3.10;2.05;;;-4.10;92.90;;;;;;4992126;28;20085;-75
2021/01/02 05:24:16;;;;;;;2.78;2.28;;;-4.10;92.80;;;;;;4992180;28;20027;-77
2021/01/02 05:27:02;;;;;;;3.50;2.33;;;-4.10;92.60;;;;;;4992140;28;20034;-77
2021/01/02 05:29:29;;;;;;;4.10;2.58;;;-4.10;92.90;;;;;;4991910;28;20034;-78
2021/01/02 05:32:03;;;;;;;2.17;1.95;;;-4.10;93.30;;;;;;4992564;28;20271;-76
2021/01/02 05:34:31;;;;;;;2.80;2.35;;;-4.10;93.40;;;;;;4992033;28;20015;-75
2021/01/02 05:37:00;;;;;;;3.72;2.33;;;-4.10;93.90;;;;;;4992204;28;20053;-75
2021/01/02 05:39:37;;;;;;;3.65;2.20;;;-4.10;94.10;;;;;;4992019;28;20489;-76
2021/01/02 05:42:04;;;;;;;2.90;2.30;;;-4.00;99.90;;;;;;4992205;28;20451;-75
2021/01/02 05:44:33;;;;;;;5.65;2.22;;;-3.70;99.90;;;;;;4995651;28;20030;-78
2021/01/02 05:47:00;;;;;;;2.97;2.50;;;-3.10;99.90;;;;;;4995715;28;20030;-79
2021/01/02 05:49:46;;;;;;;3.53;2.67;;;-3.20;99.90;;;;;;4995254;28;20034;-78
2021/01/02 05:52:12;;;;;;;2.80;2.28;;;-3.40;99.90;;;;;;4993200;28;20077;-73
2021/01/02 05:54:47;;;;;;;3.20;2.50;;;-3.50;99.20;;;;;;4994961;28;20110;-73
2021/01/02 05:57:23;;;;;;;2.72;2.47;;;-3.60;98.50;;;;;;4993637;28;20030;-71
2021/01/02 05:59:52;;;;;;;4.28;2.85;;;-3.60;98.10;;;;;;4992309;28;20024;-71
2021/01/02 06:02:20;;;;;;;3.28;2.45;;;-3.60;97.90;;;;;;4994858;28;20041;-71
2021/01/02 06:05:03;;;;;;;4.80;2.83;;;-3.70;96.60;;;;;;4988906;28;20038;-71
2021/01/02 06:07:30;;;;;;;4.45;2.65;;;-3.80;97.80;;;;;;4993712;28;20073;-71
2021/01/02 06:09:57;;;;;;;4.78;2.63;;;-3.70;98.20;;;;;;4994494;28;20482;-71
2021/01/02 06:12:30;;;;;;;3.95;2.40;;;-3.80;97.90;;;;;;4994507;28;20122;-71
2021/01/02 06:15:08;;;;;;;3.83;2.70;;;-3.70;98.30;;;;;;4992393;28;20073;-71
2021/01/02 06:17:36;;;;;;;3.33;2.50;;;-3.80;98.80;;;;;;4994119;28;20104;-71
2021/01/02 06:20:06;;;;;;;3.33;2.40;;;-3.80;99.40;;;;;;4991454;28;20554;-76
2021/01/02 06:22:33;;;;;;;2.75;2.45;;;-3.80;99.90;;;;;;4992848;28;20045;-77
2021/01/02 06:24:59;;;;;;;3.33;2.78;;;-3.80;99.90;;;;;;4994837;28;20030;-73
2021/01/02 06:27:26;;;;;;;2.63;2.28;;;-3.80;99.90;;;;;;4995052;28;20113;-80
2021/01/02 06:29:56;;;;;;;3.65;2.63;;;-3.80;99.90;;;;;;4994865;28;20030;-81
2021/01/02 06:32:23;;;;;;;2.97;2.28;;;-3.50;99.90;;;;;;4995071;28;20027;-81
2021/01/02 06:35:07;;;;;;;4.07;2.67;;;-3.40;99.90;;;;;;4994600;28;20042;-81
2021/01/02 06:37:51;;;;;;;3.03;2.38;;;-3.40;99.90;;;;;;4994557;28;20031;-81
2021/01/02 06:40:27;;;;;;;4.07;2.70;;;-3.50;99.90;;;;;;4994863;28;20077;-80
2021/01/02 06:42:56;;;;;;;3.70;2.60;;;-3.60;99.90;;;;;;4994735;28;20045;-80
2021/01/02 06:45:37;;;;;;;3.45;2.22;;;-3.60;99.90;;;;;;4994721;28;20069;-80
2021/01/02 06:48:27;;;;;;;6.03;2.72;;;-3.60;99.80;;;;;;4994454;28;20022;-80
2021/01/02 06:50:53;;;;;;;4.10;2.30;;;-3.60;99.90;;;;;;4993050;28;20398;-81
2021/01/02 06:53:26;;;;;;;4.07;2.25;;;-3.60;99.70;;;;;;4992619;28;20031;-80
2021/01/02 06:55:59;;;;;;;3.25;2.03;;;-3.60;99.00;;;;;;4994064;28;20100;-80
2021/01/02 06:58:33;;;;;;;4.30;2.72;;;-3.60;99.30;;;;;;4994330;28;20034;-80
2021/01/02 07:00:59;;;;;;;2.95;2.03;;;-3.60;99.30;;;;;;4994511;28;20115;-79
2021/01/02 07:03:40;;;;;;;3.25;2.42;;;-3.60;97.70;;;;;;4994066;28;20070;-79
2021/01/02 07:06:21;;;;;;;3.33;1.90;;;-3.20;99.90;;;;;;4994018;28;20112;-71
2021/01/02 07:08:47;;;;;;;;;;;-2.20;99.90;;;;;;4994298;28;20033;-73
2021/01/02 07:11:22;;;;;;;4.32;2.38;;;-1.90;99.90;;;;;;4993347;28;19917;-72
2021/01/02 07:13:49;;;;;;;3.80;2.05;;;-2.40;99.90;;;;;;4991918;28;20026;-73
2021/01/02 07:16:31;;;;;;;2.42;2.10;;;-2.70;99.90;;;;;;4993842;28;20465;-72
2021/01/02 07:18:57;;;;;;;3.88;2.05;;;-3.00;98.60;;;;;;4977884;28;20406;-72
2021/01/02 07:21:38;;;;;;;2.00;1.80;;;-3.10;97.60;;;;;;4990171;28;20022;-72
2021/01/02 07:24:23;;;;;;;2.22;1.80;;;-3.30;95.80;;;;;;4993696;28;20504;-73
2021/01/02 07:27:05;;;;;;;2.42;1.88;;;-3.20;99.90;;;;;;4993554;28;20101;-80
2021/01/02 07:29:39;;;;;;;3.30;1.85;;;-2.80;99.90;;;;;;4993765;28;20034;-80
2021/01/02 07:32:12;;;;;;;2.28;1.73;;;-1.50;99.90;;;;;;4993693;28;20053;-79
2021/01/02 07:34:40;;;;;;;2.08;1.80;;;-1.70;99.90;;;;;;4993933;28;20027;-73
2021/01/02 07:37:10;;;;;;;1.70;1.60;;;-2.10;99.90;;;;;;4992218;28;20429;-74
2021/01/02 07:39:37;;;;;;;1.52;1.42;;;-2.50;99.90;;;;;;4993581;28;20037;-76
2021/01/02 07:42:12;;;;;;;1.92;1.60;;;-2.70;97.30;;;;;;4993414;28;20025;-72
2021/01/02 07:44:40;;;;;;;1.67;1.58;;;-2.90;95.50;;;;;;4993192;28;20057;-74
2021/01/02 07:47:07;;;;;;;1.67;1.58;;;-3.10;95.60;;;;;;4993419;28;20486;-73
2021/01/02 07:49:33;;;;;;;1.60;1.50;;;-3.10;95.20;;;;;;4993435;28;20445;-73
2021/01/02 07:51:59;;;;;;;1.75;1.50;;;-3.20;93.80;;;;;;4991956;28;20421;-73
2021/01/02 07:54:32;;;;;;;1.60;1.50;;;-3.40;93.70;;;;;;4993501;28;20077;-74
2021/01/02 07:56:58;;;;;;;1.90;1.73;;;-3.40;93.30;;;;;;4993308;28;20046;-72
2021/01/02 07:59:29;;;;;;;1.73;1.63;;;-3.60;92.20;;;;;;4993379;28;20380;-72
2021/01/02 08:01:56;;;;;;;1.90;1.70;;;-3.70;91.70;;;;;;4993032;28;20512;-73
2021/01/02 08:04:23;;;;;;;4.32;2.67;;;-3.80;92.40;;;;;;4993309;28;20053;-72
2021/01/02 08:06:55;;;;;;;2.42;2.00;;;-3.80;93.00;;;;;;4992379;28;20045;-72
2021/01/02 08:09:21;;;;;;;3.05;2.45;;;-3.90;93.90;;;;;;4993282;28;20061;-79
2021/01/02 08:11:58;;;;;;;2.78;2.30;;;-3.90;93.30;;;;;;4992858;28;20025;-79
2021/01/02 08:14:25;;;;;;;2.00;1.85;;;-4.00;92.00;;;;;;4992924;28;20030;-79
2021/01/02 08:17:10;;;;;;;1.92;1.73;;;-4.10;91.50;;;;;;4992731;28;20037;-79
2021/01/02 08:19:56;;;;;;;2.20;1.90;;;-4.20;90.20;;;;;;4992467;28;20112;-80
2021/01/02 08:22:30;;;;;;;2.38;1.85;;;-4.30;89.70;;;;;;4992583;28;20057;-80
2021/01/02 08:25:01;;;;;;;2.28;2.03;;;-4.40;89.90;;;;;;4991736;28;20042;-81
2021/01/02 08:27:34;;;;;;;3.08;2.30;;;-4.40;90.00;;;;;;4991716;28;20106;-82
2021/01/02 08:30:03;;;;;;;2.05;1.77;;;-4.50;92.60;;;;;;4990141;28;20061;-74
2021/01/02 08:32:34;;;;;;;3.35;2.15;;;-3.50;99.90;;;;;;4992366;28;20035;-73
2021/01/02 08:35:00;;;;;;;2.63;2.15;;;-2.80;99.90;;;;;;4992004;28;20018;-73
2021/01/02 08:37:27;;;;;;;2.78;2.10;;;-3.00;99.90;;;;;;4991899;28;20038;-73
2021/01/02 08:40:07;;;;;;;2.88;2.20;;;-3.30;99.90;;;;;;4989567;28;20034;-73
2021/01/02 08:42:40;;;;;;;4.05;2.60;;;-3.60;97.40;;;;;;4990014;28;20014;-81
2021/01/02 08:45:08;;;;;;;4.47;2.85;;;-3.70;94.10;;;;;;4992948;28;20069;-81
2021/01/02 08:47:36;;;;;;;2.58;2.20;;;-3.80;93.60;;;;;;4992935;28;20113;-80
2021/01/02 08:50:15;;;;;;;3.97;2.40;;;-3.90;99.90;;;;;;4992196;28;20019;-77
2021/01/02 08:52:44;;;;;;;3.10;2.53;;;-2.70;99.90;;;;;;4992269;28;20062;-77
2021/01/02 08:55:16;;;;;;;3.55;2.78;;;-2.70;99.90;;;;;;4992684;28;20030;-76
2021/01/02 08:57:49;;;;;;;5.47;3.20;;;-3.10;97.60;;;;;;4992542;28;20072;-77
2021/01/02 09:00:29;;;;;;;4.13;2.63;;;-3.50;94.70;;;;;;4992710;28;20046;-77
2021/01/02 09:02:54;;;;;;;3.33;2.60;;;-3.70;92.90;;;;;;4992399;28;20032;-77
2021/01/02 09:05:32;;;;;;;4.22;2.90;;;-4.00;92.00;;;;;;4992354;28;20022;-77
2021/01/02 09:08:03;;;;;;;4.05;3.20;;;-4.10;91.20;;;;;;4992577;28;20030;-77
2021/01/02 09:10:38;;;;;;;6.90;3.10;;;-4.30;91.00;;;;;;4991110;28;20034;-76
2021/01/02 09:13:24;;;;;;;3.55;2.63;;;-4.40;91.20;;;;;;4991416;28;20026;-77
2021/01/02 09:16:14;;;;;;;3.92;2.80;;;-4.40;90.70;;;;;;4992349;28;20049;-77
2021/01/02 09:18:41;;;;;;;3.55;2.70;;;-4.50;89.50;;;;;;4995731;28;20058;-76
2021/01/02 09:21:09;;;;;;;2.83;2.30;;;-4.70;87.70;;;;;;4996290;28;20034;-76
2021/01/02 09:23:38;;;;;;;2.67;2.30;;;-4.80;88.70;;;;;;4996306;28;20485;-76
2021/01/02 09:26:04;;;;;;;4.07;2.78;;;-4.80;89.30;;;;;;4996069;28;20031;-76
2021/01/02 09:28:43;;;;;;;3.28;2.58;;;-4.90;88.90;;;;;;4996027;28;20029;-77
2021/01/02 09:31:09;;;;;;;3.42;2.50;;;-5.00;88.00;;;;;;4995833;28;20030;-76
2021/01/02 09:33:34;;;;;;;3.28;2.40;;;-5.00;87.30;;;;;;4995849;28;20084;-76
2021/01/02 09:36:00;;;;;;;2.22;1.85;;;-5.10;86.80;;;;;;4995453;28;20027;-81
2021/01/02 09:38:26;;;;;;;4.57;3.08;;;-4.80;99.90;;;;;;4995237;28;20038;-77
2021/01/02 09:40:52;;;;;;;3.95;3.00;;;-3.10;99.90;;;;;;4995399;28;20435;-78
2021/01/02 09:43:18;;;;;;;4.70;3.22;;;-3.10;99.90;;;;;;4995602;28;20387;-77
2021/01/02 09:45:44;;;;;;;3.47;2.80;;;-3.60;99.90;;;;;;4995595;28;20076;-76
2021/01/02 09:48:11;;;;;;;5.30;3.05;;;-4.00;98.20;;;;;;4995366;28;20050;-76
2021/01/02 09:50:40;;;;;;;4.43;2.90;;;-4.30;93.70;;;;;;4995626;28;20027;-75
2021/01/02 09:53:07;;;;;;;3.63;3.03;;;-4.50;93.30;;;;;;4995986;28;20478;-76
2021/01/02 09:55:32;;;;;;;4.65;3.10;;;-4.60;92.50;;;;;;4995565;28;20347;-73
2021/01/02 09:57:58;;;;;;;3.42;2.80;;;-3.90;99.90;;;;;;4995127;28;20038;-72
2021/01/02 10:00:27;;;;;;;4.95;3.42;;;-3.00;99.90;;;;;;4996172;28;20037;-74
2021/01/02 10:02:53;;;;;;;4.32;3.00;;;-3.10;99.90;;;;;;4994337;28;20030;-75
2021/01/02 10:05:21;;;;;;;4.38;3.20;;;-3.70;97.80;;;;;;4996110;28;20022;-74
2021/01/02 10:07:47;;;;;;;4.47;3.22;;;-4.10;92.70;;;;;;4995050;28;20027;-74
2021/01/02 10:10:15;;;;;;;4.82;3.40;;;-4.40;90.70;;;;;;4994827;28;20101;-75
2021/01/02 10:12:45;;;;;;;4.65;3.28;;;-4.70;90.10;;;;;;4994267;28;20026;-75
2021/01/02 10:15:12;;;;;;;5.13;3.10;;;-4.80;89.80;;;;;;4994632;28;20034;-83
2021/01/02 10:17:38;;;;;;;4.78;3.50;;;-5.00;88.50;;;;;;4994297;28;20137;-76
2021/01/02 10:20:05;;;;;;;5.10;2.95;;;-5.20;87.90;;;;;;4994055;28;20129;-77
2021/01/02 10:22:32;;;;;;;5.82;3.35;;;-5.30;88.30;;;;;;4998318;28;20474;-78
2021/01/02 10:24:57;;;;;;;5.35;3.42;;;-5.30;89.10;;;;;;4994342;28;20049;-78
2021/01/02 10:27:24;;;;;;;4.40;3.30;;;-5.30;89.20;;;;;;4994332;28;20485;-79
2021/01/02 10:29:52;;;;;;;5.07;3.08;;;-5.40;89.00;;;;;;4993256;28;20019;-76
2021/01/02 10:32:20;;;;;;;5.90;3.30;;;-5.40;87.60;;;;;;4994632;28;20025;-79
2021/01/02 10:34:46;;;;;;;4.72;3.10;;;-5.50;86.80;;;;;;4994465;28;20073;-79
2021/01/02 10:37:13;;;;;;;5.63;3.47;;;-5.50;87.50;;;;;;4994859;28;20037;-79
2021/01/02 10:39:40;;;;;;;6.65;3.55;;;-5.60;88.50;;;;;;4994413;28;20501;-78
2021/01/02 10:42:07;;;;;;;5.68;3.22;;;-5.70;88.80;;;;;;4994305;28;20035;-78
2021/01/02 10:44:33;;;;;;;5.60;3.65;;;-5.70;88.00;;;;;;4994356;28;20042;-78
2021/01/02 10:46:59;;;;;;;5.13;3.88;;;-5.70;88.30;;;;;;4993726;28;20088;-77
2021/01/02 10:49:26;;;;;;;8.07;4.53;;;-5.80;88.90;;;;;;4993950;28;20474;-77
2021/01/02 10:51:52;;;;;;;7.80;5.03;;;-5.80;89.10;;;;;;4993601;28;20471;-74
2021/01/02 10:54:20;;;;;;;7.50;4.93;;;-5.90;90.40;;;;;;4993713;28;20026;-75
2021/01/02 10:56:48;;;;;;;6.20;4.07;;;-5.90;91.80;;;;;;4993295;28;20030;-75
2021/01/02 10:59:14;;;;;;;6.18;4.10;;;-5.90;92.80;;;;;;4994474;28;20041;-76
2021/01/02 11:01:45;;;;;;;5.43;3.50;;;-5.90;93.10;;;;;;4992790;28;20026;-77
2021/01/02 11:04:12;;;;;;;5.38;3.90;;;-5.80;94.30;;;;;;4994180;28;20050;-76
2021/01/02 11:06:39;;;;;;;5.90;3.67;;;-5.80;95.40;;;;;;4992572;28;20399;-76
2021/01/02 11:09:07;;;;;;;8.85;6.25;;;-5.80;96.20;;;;;;4993750;28;20482;-75
2021/01/02 11:11:33;;;;;;;10.75;6.93;;;-5.80;97.30;;;;;;4993654;28;20058;-75
2021/01/02 11:13:59;;;;;;;10.13;5.30;;;-5.70;97.90;;;;;;4993584;28;20033;-76
2021/01/02 11:16:37;;;;;;;8.20;4.20;;;-5.70;98.50;;;;;;4993015;28;20030;-74
2021/01/02 11:19:08;;;;;;;7.25;4.10;;;-5.70;99.00;;;;;;4993119;28;20042;-75
2021/01/02 11:21:34;;;;;;;6.65;4.30;;;-5.60;99.40;;;;;;4993396;28;20023;-77
2021/01/02 11:23:59;;;;;;;8.68;4.43;;;-5.60;99.40;;;;;;4991992;28;20068;-77
2021/01/02 11:26:25;;;;;;;8.93;5.07;;;-5.50;99.60;;;;;;4991976;28;20022;-78
2021/01/02 11:28:51;;;;;;;9.27;5.07;;;-5.50;99.60;;;;;;4992976;28;20041;-78
2021/01/02 11:31:18;;;;;;;8.60;4.45;;;-5.50;99.90;;;;;;4992928;28;20031;-76
2021/01/02 11:33:43;;;;;;;7.65;4.38;;;-5.50;99.90;;;;;;4993076;28;20489;-77
2021/01/02 11:36:11;;;;;;;5.18;3.85;;;-5.50;99.90;;;;;;4993099;28;20035;-79
2021/01/02 11:38:36;;;;;;;5.82;3.88;;;-5.40;99.90;;;;;;4990474;28;20038;-78
2021/01/02 11:41:02;;;;;;;4.75;3.65;;;-5.40;99.90;;;;;;4992783;28;20101;-80
2021/01/02 11:43:28;;;;;;;5.70;3.53;;;-5.30;99.90;;;;;;4992800;28;20026;-73
2021/01/02 11:45:54;;;;;;;6.20;3.63;;;-5.30;99.90;;;;;;4992675;28;20018;-79
2021/01/02 11:48:19;;;;;;;4.38;3.38;;;-5.30;99.90;;;;;;4992872;28;20022;-78
2021/01/02 11:50:45;;;;;;;7.78;3.33;;;-5.30;98.60;;;;;;4992749;28;20049;-78
2021/01/02 11:53:11;;;;;;;5.20;3.13;;;-5.30;98.50;;;;;;4992675;28;20030;-80
2021/01/02 11:55:37;;;;;;;5.07;3.03;;;-5.30;98.70;;;;;;4992603;28;20641;-78
2021/01/02 11:58:03;;;;;;;4.45;2.90;;;-5.30;98.30;;;;;;4992467;28;20030;-77
2021/01/02 12:00:32;;;;;;;5.25;3.03;;;-5.30;97.60;;;;;;4992457;28;20058;-78
2021/01/02 12:02:58;;;;;;;4.57;2.72;;;-5.20;97.20;;;;;;4992554;28;20481;-77
2021/01/02 12:05:24;;;;;;;4.78;3.08;;;-5.20;96.80;;;;;;4992656;28;20054;-76
2021/01/02 12:07:50;;;;;;;4.15;3.15;;;-5.20;96.40;;;;;;4992275;28;20101;-77
2021/01/02 12:10:17;;;;;;;3.45;2.88;;;-5.20;95.80;;;;;;4992916;28;20114;-71
2021/01/02 12:12:44;;;;;;;5.82;2.97;;;-5.20;95.10;;;;;;4992927;28;20053;-69
2021/01/02 12:15:10;;;;;;;3.53;3.10;;;-4.40;99.90;;;;;;4992246;28;20500;-69
2021/01/02 12:17:37;;;;;;;4.35;2.97;;;-4.40;99.90;;;;;;4992292;28;20031;-70
2021/01/02 12:20:03;;;;;;;4.72;2.80;;;-4.60;99.90;;;;;;4992206;28;20120;-72
2021/01/02 12:22:30;;;;;;;5.00;3.22;;;-4.80;96.30;;;;;;4992754;28;20042;-73
2021/01/02 12:24:56;;;;;;;5.93;3.55;;;-4.90;94.90;;;;;;4992687;28;20030;-71
2021/01/02 12:27:21;;;;;;;5.57;3.28;;;-5.00;94.40;;;;;;4992778;28;20092;-79
2021/01/02 12:29:47;;;;;;;4.72;3.22;;;-5.10;94.10;;;;;;4992738;28;20414;-75
2021/01/02 12:32:13;;;;;;;4.53;3.20;;;-5.20;94.40;;;;;;4992590;28;20034;-75
2021/01/02 12:34:43;;;;;;;7.88;4.50;;;-4.70;99.90;;;;;;4992717;28;20627;-72
2021/01/02 12:37:11;;;;;;;7.27;4.47;;;-4.60;99.90;;;;;;4992747;28;20035;-72
2021/01/02 12:39:37;;;;;;;8.52;4.68;;;-4.80;95.90;;;;;;4992566;28;20264;-72
2021/01/02 12:42:04;;;;;;;6.72;4.38;;;-4.90;93.90;;;;;;4992348;28;20525;-72
2021/01/02 12:44:30;;;;;;;6.57;3.95;;;-5.10;92.80;;;;;;4992727;28;20038;-69
2021/01/02 12:46:59;;;;;;;5.45;3.60;;;-5.10;99.90;;;;;;4991413;28;20033;-69
2021/01/02 12:49:32;;;;;;;6.80;3.80;;;-4.40;99.90;;;;;;4992781;28;20034;-69
2021/01/02 12:52:00;;;;;;;6.80;3.70;;;-4.20;99.90;;;;;;4993863;28;20019;-69
2021/01/02 12:54:26;;;;;;;5.40;3.40;;;-4.40;99.90;;;;;;4996543;28;20105;-69
2021/01/02 12:56:53;;;;;;;6.50;3.55;;;-4.60;99.90;;;;;;4996278;28;20023;-72
2021/01/02 12:59:28;;;;;;;5.75;3.67;;;-4.70;99.90;;;;;;4996524;28;20030;-70
2021/01/02 13:01:57;;;;;;;6.97;3.92;;;-4.40;99.90;;;;;;4997117;28;20023;-69
2021/01/02 13:04:23;;;;;;;8.15;4.57;;;-4.50;99.90;;;;;;4996621;28;20390;-69
2021/01/02 13:06:56;;;;;;;6.07;3.95;;;-4.60;97.80;;;;;;4996221;28;20015;-69
2021/01/02 13:09:23;;;;;;;5.60;3.97;;;-4.80;95.80;;;;;;4996364;28;20058;-69
2021/01/02 13:11:52;;;;;;;4.70;3.72;;;-4.90;96.20;;;;;;4995851;28;20031;-69
2021/01/02 13:14:18;;;;;;;6.10;3.72;;;-4.90;94.80;;;;;;4995907;28;20034;-69
2021/01/02 13:16:59;;;;;;;5.00;3.72;;;-5.00;91.90;;;;;;4996135;28;20433;-68
2021/01/02 13:19:25;;;;;;;5.40;4.03;;;-5.20;90.50;;;;;;4995490;28;20410;-70
2021/01/02 13:21:56;;;;;;;5.47;4.43;;;-5.30;90.60;;;;;;4994663;28;20113;-68
2021/01/02 13:24:25;;;;;;;5.13;4.13;;;-5.40;90.30;;;;;;4995917;28;20030;-69
2021/01/02 13:26:53;;;;;;;6.80;4.55;;;-5.40;89.60;;;;;;4995998;28;20033;-69
2021/01/02 13:29:21;;;;;;;9.13;4.15;;;-5.50;89.30;;;;;;4995869;28;20109;-69
2021/01/02 13:31:57;;;;;;;7.93;3.92;;;-5.60;88.70;;;;;;4995784;28;20039;-69
2021/01/02 13:34:24;;;;;;;7.00;3.67;;;-5.60;88.60;;;;;;4995926;28;20034;-70
2021/01/02 13:36:51;;;;;;;6.57;3.97;;;-5.70;88.70;;;;;;4995804;28;20031;-69
2021/01/02 13:39:27;;;;;;;4.65;3.53;;;-5.70;88.70;;;;;;4995858;28;20038;-70
2021/01/02 13:41:54;;;;;;;4.72;3.28;;;-5.80;88.10;;;;;;4995340;28;20157;-73
2021/01/02 13:44:21;;;;;;;3.92;3.28;;;-5.80;87.90;;;;;;4993822;28;20030;-79
2021/01/02 13:46:47;;;;;;;4.50;3.53;;;-5.90;87.20;;;;;;4995016;28;20026;-77
2021/01/02 13:49:13;;;;;;;4.63;3.10;;;-6.00;87.70;;;;;;4993691;28;20716;-77
2021/01/02 13:51:39;;;;;;;3.78;3.20;;;-6.00;87.40;;;;;;4994905;28;20135;-75
2021/01/02 13:54:05;;;;;;;4.53;3.17;;;-6.10;87.40;;;;;;4995228;28;20022;-74
2021/01/02 13:56:31;;;;;;;4.15;3.00;;;-4.80;99.90;;;;;;4995561;28;20034;-76
2021/01/02 13:59:00;;;;;;;3.72;2.85;;;-4.70;99.90;;;;;;4994987;28;20031;-76
2021/01/02 14:01:33;;;;;;;3.05;2.75;;;-4.60;99.90;;;;;;4995203;28;20426;-79
2021/01/02 14:03:59;;;;;;;3.90;2.78;;;-4.30;99.90;;;;;;4993213;28;20029;-77
2021/01/02 14:06:24;;;;;;;2.80;2.53;;;-4.50;99.90;;;;;;4994678;28;20031;-78
2021/01/02 14:08:50;;;;;;;3.10;2.20;;;-4.90;98.10;;;;;;4994791;28;20030;-79
2021/01/02 14:11:19;;;;;;;3.03;2.30;;;-5.10;94.90;;;;;;4994485;28;20062;-78
2021/01/02 14:13:44;;;;;;;2.92;2.40;;;-5.40;92.60;;;;;;4994533;28;20030;-78
2021/01/02 14:16:10;;;;;;;2.72;2.40;;;-5.50;91.70;;;;;;4994706;28;20018;-78
2021/01/02 14:18:36;;;;;;;4.00;2.70;;;-5.70;91.90;;;;;;4994161;28;20510;-77
2021/01/02 14:21:05;;;;;;;4.40;2.67;;;-5.80;92.10;;;;;;4994219;28;20101;-78
2021/01/02 14:23:31;;;;;;;3.65;3.00;;;-5.80;91.40;;;;;;4994747;28;20110;-77
2021/01/02 14:25:59;;;;;;;5.20;2.90;;;-5.90;91.00;;;;;;4994298;28;20101;-78
2021/01/02 14:28:25;;;;;;;3.13;2.60;;;-5.90;91.00;;;;;;4994258;28;20022;-78
2021/01/02 14:30:51;;;;;;;3.83;2.92;;;-6.00;90.50;;;;;;4994232;28;20029;-77
2021/01/02 14:33:17;;;;;;;4.00;2.85;;;-6.00;90.30;;;;;;4994111;28;20026;-76
2021/01/02 14:35:42;;;;;;;5.22;2.67;;;-6.00;90.10;;;;;;4992807;28;20022;-77
2021/01/02 14:38:08;;;;;;;5.15;3.10;;;-6.10;90.00;;;;;;4993902;28;20039;-75
2021/01/02 14:40:35;;;;;;;4.43;2.60;;;-6.20;90.10;;;;;;4994191;28;20026;-76
2021/01/02 14:43:01;;;;;;;3.70;2.88;;;-6.20;90.40;;;;;;4994336;28;20046;-74
2021/01/02 14:45:27;;;;;;;2.80;2.45;;;-6.20;90.70;;;;;;4994676;28;20022;-74
2021/01/02 14:47:53;;;;;;;3.38;2.67;;;-6.30;90.50;;;;;;4992294;28;20108;-77
2021/01/02 14:50:19;;;;;;;5.03;2.97;;;-6.40;90.40;;;;;;4994017;28;20569;-76
2021/01/02 14:52:45;;;;;;;5.80;2.80;;;-6.40;90.80;;;;;;4993811;28;20118;-75
2021/01/02 14:55:12;;;;;;;3.45;2.65;;;-6.40;90.70;;;;;;4994043;28;20462;-76
2021/01/02 14:57:37;;;;;;;4.80;2.83;;;-6.40;90.40;;;;;;4993837;28;20045;-76
2021/01/02 15:00:06;;;;;;;3.72;2.60;;;-6.40;90.00;;;;;;4994107;28;20030;-76
2021/01/02 15:02:32;;;;;;;4.97;3.42;;;-6.40;89.30;;;;;;4993831;28;20029;-76
2021/01/02 15:04:58;;;;;;;3.33;2.50;;;-6.40;89.30;;;;;;4993761;28;20026;-76
2021/01/02 15:07:23;;;;;;;3.72;2.65;;;-6.40;89.60;;;;;;4993617;28;20026;-75
2021/01/02 15:09:49;;;;;;;4.13;2.60;;;-6.40;88.50;;;;;;4993851;28;20018;-77
2021/01/02 15:12:15;;;;;;;5.55;2.85;;;-6.50;88.60;;;;;;4994210;28;20030;-76
2021/01/02 15:14:41;;;;;;;4.10;2.60;;;-6.50;89.40;;;;;;4993463;28;20105;-77
2021/01/02 15:17:08;;;;;;;2.70;2.30;;;-6.50;89.40;;;;;;4996735;28;20037;-77
2021/01/02 15:19:34;;;;;;;4.40;2.85;;;-6.60;89.10;;;;;;4991953;28;20042;-77
2021/01/02 15:21:59;;;;;;;5.82;3.72;;;-6.60;88.90;;;;;;4993840;28;20081;-78
2021/01/02 15:24:25;;;;;;;4.97;3.55;;;-6.70;88.50;;;;;;4993085;28;20095;-78
2021/01/02 15:26:53;;;;;;;4.95;3.50;;;-6.80;87.60;;;;;;4988137;28;20018;-77
2021/01/02 15:29:19;;;;;;;7.32;3.58;;;-6.90;89.70;;;;;;4989037;28;20062;-78
2021/01/02 15:31:46;;;;;;;7.47;4.25;;;-6.90;90.40;;;;;;4993246;28;20037;-77
2021/01/02 15:34:16;;;;;;;8.05;4.32;;;-7.00;90.70;;;;;;4992128;28;20030;-77
2021/01/02 15:36:43;;;;;;;8.33;4.47;;;-7.00;90.60;;;;;;4992243;28;20553;-76
2021/01/02 15:39:23;;;;;;;6.30;3.80;;;-7.10;90.60;;;;;;4992028;28;20347;-76
2021/01/02 15:41:49;;;;;;;6.55;3.88;;;-7.10;90.90;;;;;;4990822;28;20070;-73
2021/01/02 15:44:18;;;;;;;5.93;3.90;;;-7.10;90.50;;;;;;4973801;28;20058;-71
2021/01/02 15:46:52;;;;;;;4.68;3.40;;;-7.10;90.30;;;;;;4973339;28;20513;-72
2021/01/02 15:49:20;;;;;;;6.78;3.08;;;-7.20;90.40;;;;;;4992885;28;20471;-71
2021/01/02 15:51:46;;;;;;;4.35;2.75;;;-7.20;90.40;;;;;;4992639;28;20529;-71
2021/01/02 15:54:15;;;;;;;4.57;3.20;;;-7.20;90.30;;;;;;4992858;28;20030;-71
2021/01/02 15:56:42;;;;;;;3.50;2.80;;;-7.10;90.20;;;;;;4993202;28;20027;-71
2021/01/02 15:59:08;;;;;;;4.88;3.00;;;-7.00;90.10;;;;;;4990917;28;20041;-71
2021/01/02 16:01:36;;;;;;;3.80;2.90;;;-7.00;89.50;;;;;;4992931;28;20034;-70
2021/01/02 16:04:01;;;;;;;4.13;2.92;;;-7.00;88.80;;;;;;4992807;28;20022;-71
2021/01/02 16:06:27;;;;;;;4.35;3.28;;;-7.00;88.40;;;;;;4992535;28;20667;-71
2021/01/02 16:08:55;;;;;;;4.53;3.42;;;-7.00;88.50;;;;;;4991547;28;20034;-71
2021/01/02 16:11:32;;;;;;;5.18;3.47;;;-7.00;88.80;;;;;;4991599;28;20065;-71
2021/01/02 16:13:59;;;;;;;3.55;3.15;;;-6.90;88.50;;;;;;4995743;28;20023;-78
2021/01/02 16:16:25;;;;;;;2.92;2.63;;;-6.90;87.70;;;;;;4991564;28;20023;-77
2021/01/02 16:18:52;;;;;;;3.25;2.65;;;-6.40;99.90;;;;;;4991339;28;20054;-73
2021/01/02 16:21:27;;;;;;;4.88;3.55;;;-6.00;99.90;;;;;;4992663;28;20022;-73
2021/01/02 16:23:53;;;;;;;4.65;3.45;;;-6.20;97.00;;;;;;4997284;28;20041;-73
2021/01/02 16:26:33;;;;;;;3.97;2.95;;;-6.40;92.10;;;;;;4994848;28;20056;-72
2021/01/02 16:28:59;;;;;;;4.05;2.70;;;-6.60;90.90;;;;;;4992773;28;20034;-72
2021/01/02 16:31:25;;;;;;;5.35;3.15;;;-6.80;90.00;;;;;;4992664;28;20031;-72
2021/01/02 16:33:54;;;;;;;3.85;2.92;;;-6.90;89.30;;;;;;4991486;28;20030;-72
2021/01/02 16:36:25;;;;;;;6.50;3.25;;;-7.00;88.20;;;;;;4992605;28;20027;-72
2021/01/02 16:38:52;;;;;;;5.05;3.45;;;-7.00;88.20;;;;;;4991399;28;20092;-72
2021/01/02 16:41:23;;;;;;;5.38;3.25;;;-7.00;88.30;;;;;;4992298;28;20089;-73
2021/01/02 16:43:49;;;;;;;5.78;3.30;;;-7.10;88.10;;;;;;4991534;28;20023;-77
2021/01/02 16:46:23;;;;;;;4.60;3.17;;;-7.10;99.90;;;;;;4995679;28;20019;-74
2021/01/02 16:48:54;;;;;;;4.78;3.60;;;-6.60;99.90;;;;;;4992339;28;20478;-73
2021/01/02 16:51:22;;;;;;;7.20;3.92;;;-6.80;93.80;;;;;;4992404;28;20033;-73
2021/01/02 16:53:49;;;;;;;10.95;6.32;;;-7.00;91.30;;;;;;4992450;28;20026;-76
2021/01/02 16:56:15;;;;;;;11.93;5.95;;;-7.10;90.40;;;;;;4992388;28;20023;-75
2021/01/02 16:58:41;;;;;;;9.50;5.05;;;-7.20;90.50;;;;;;4992342;28;20038;-75
2021/01/02 17:01:15;;;;;;;6.28;3.90;;;-7.30;90.60;;;;;;4992249;28;20026;-75
2021/01/02 17:03:41;;;;;;;8.57;4.22;;;-7.30;91.40;;;;;;4992488;28;20085;-75
2021/01/02 17:06:39;;;;;;;6.97;3.75;;;-7.30;91.90;;;;;;4991057;28;20022;-74
2021/01/02 17:09:07;;;;;;;6.97;3.78;;;-7.30;93.00;;;;;;4958980;28;20121;-75
2021/01/02 17:11:38;;;;;;;7.88;4.28;;;-7.30;93.20;;;;;;4992436;28;20027;-76
2021/01/02 17:14:06;;;;;;;10.27;4.97;;;-7.20;93.90;;;;;;4992376;28;20023;-76
2021/01/02 17:16:35;;;;;;;9.95;4.82;;;-7.20;94.50;;;;;;4991125;28;20425;-75
2021/01/02 17:19:02;;;;;;;7.65;4.50;;;-7.10;94.70;;;;;;4991881;28;20073;-71
2021/01/02 17:21:30;;;;;;;7.38;4.18;;;-7.00;95.40;;;;;;4990941;28;20101;-72
2021/01/02 17:23:56;;;;;;;5.38;3.60;;;-7.00;95.60;;;;;;4992271;28;20022;-70
2021/01/02 17:26:27;;;;;;;5.60;3.53;;;-7.00;96.30;;;;;;4992015;28;20482;-70
2021/01/02 17:28:53;;;;;;;5.30;3.55;;;-6.90;97.00;;;;;;4972828;28;20031;-71
2021/01/02 17:31:20;;;;;;;6.45;3.55;;;-6.90;97.60;;;;;;4972601;28;20027;-72
2021/01/02 17:33:48;;;;;;;5.85;3.53;;;-6.80;97.70;;;;;;4972785;28;20031;-70
2021/01/02 17:36:20;;;;;;;4.82;3.05;;;-6.80;98.30;;;;;;4972594;28;20027;-75
2021/01/02 17:38:47;;;;;;;4.90;3.35;;;-6.20;99.90;;;;;;4975178;28;20390;-77
2021/01/02 17:41:20;;;;;;;4.60;3.22;;;-5.70;99.90;;;;;;4980240;28;20019;-76
2021/01/02 17:43:45;;;;;;;5.35;3.65;;;-5.80;99.90;;;;;;4995223;28;20033;-77
2021/01/02 17:46:19;;;;;;;5.10;3.33;;;-6.00;99.90;;;;;;4995199;28;20027;-75
2021/01/02 17:48:44;;;;;;;5.07;3.38;;;-6.20;99.90;;;;;;4995598;28;20026;-76
2021/01/02 17:51:15;;;;;;;5.30;3.72;;;-6.20;99.90;;;;;;4994746;28;20053;-75
2021/01/02 17:53:42;;;;;;;7.82;4.03;;;-6.30;99.90;;;;;;4995359;28;20049;-76
2021/01/02 17:56:08;;;;;;;5.50;3.85;;;-6.30;99.90;;;;;;4993965;28;20061;-75
2021/01/02 17:58:34;;;;;;;5.82;3.75;;;-6.30;99.90;;;;;;4995287;28;20084;-75
2021/01/02 18:01:00;;;;;;;6.60;4.07;;;-6.20;99.90;;;;;;4995389;28;20050;-74
2021/01/02 18:03:26;;;;;;;6.18;3.75;;;-6.20;99.90;;;;;;4995034;28;20068;-76
2021/01/02 18:05:52;;;;;;;5.22;3.72;;;-6.10;99.90;;;;;;4995225;28;20023;-76
2021/01/02 18:08:17;;;;;;;5.13;3.92;;;-6.10;99.90;;;;;;4995005;28;20030;-76
2021/01/02 18:10:43;;;;;;;4.47;3.85;;;-6.10;99.90;;;;;;4995184;28;20144;-75
2021/01/02 18:13:10;;;;;;;6.22;4.28;;;-6.10;99.90;;;;;;4994954;28;20037;-75
2021/01/02 18:15:38;;;;;;;9.95;4.80;;;-6.20;99.90;;;;;;4995110;28;20498;-75